Time;durP1;ratioP1;P1;durP2;ratioP2;P2;SDS_P1;SDS_P2;PMS_P1;PMS_P2;Temp;Humidity;BMP_temperature;BMP_pressure;BME280_temperature;BME280_humidity;BME280_pressure;Samples;Min_cycle;Max_cycle;Signal;HPM_P1;HPM_P2
2021/05/30 00:00:06;;;;;;;7.22;2.25;;;;;;;11.77;64.55;99710.19;5010893;28;20049;-68
2021/05/30 00:02:35;;;;;;;4.78;2.38;;;;;;;11.72;65.90;99728.91;5014291;28;20485;-64
2021/05/30 00:05:04;;;;;;;3.28;2.00;;;;;;;11.76;65.30;99737.66;5034012;28;20044;-63
2021/05/30 00:07:30;;;;;;;7.28;2.28;;;;;;;11.77;65.00;99737.63;5027826;28;20132;-70
2021/05/30 00:09:57;;;;;;;5.93;2.17;;;;;;;11.44;64.76;99718.97;5024579;28;20049;-64
2021/05/30 00:12:23;;;;;;;9.45;2.20;;;;;;;11.64;64.36;99741.53;5022043;28;20555;-63
2021/05/30 00:14:49;;;;;;;4.15;2.40;;;;;;;11.64;64.33;99746.84;5044218;28;20216;-62
2021/05/30 00:17:16;;;;;;;4.50;2.45;;;;;;;11.68;64.29;99752.94;5043499;28;20148;-59
2021/05/30 00:19:44;;;;;;;5.75;2.60;;;;;;;11.64;64.11;99756.56;4994285;28;20059;-60
2021/05/30 00:22:10;;;;;;;12.57;2.60;;;;;;;11.60;64.11;99749.56;5038074;28;20128;-62
2021/05/30 00:24:37;;;;;;;7.82;2.88;;;;;;;11.76;64.59;99748.28;5044519;28;20110;-66
2021/05/30 00:27:05;;;;;;;9.48;2.67;;;;;;;11.66;64.50;99745.00;5043477;28;20135;-61
2021/05/30 00:29:30;;;;;;;6.55;2.40;;;;;;;11.35;63.79;99721.84;5045339;28;20064;-63
2021/05/30 00:31:56;;;;;;;8.52;2.60;;;;;;;11.25;64.83;99725.63;5044369;28;20041;-61
2021/05/30 00:34:22;;;;;;;4.63;2.80;;;;;;;11.35;64.58;99737.78;5042341;28;20048;-61
2021/05/30 00:36:49;;;;;;;5.05;2.90;;;;;;;11.42;64.37;99752.63;5034530;28;20045;-62
2021/05/30 00:39:15;;;;;;;7.57;2.58;;;;;;;11.52;63.90;99746.22;5044912;28;20095;-61
2021/05/30 00:41:43;;;;;;;6.07;2.42;;;;;;;11.44;64.12;99734.91;5010988;28;20515;-59
2021/05/30 00:44:27;;;;;;;3.10;2.15;;;;;;;11.50;63.88;99734.72;5044729;28;20044;-66
2021/05/30 00:46:55;;;;;;;5.25;2.35;;;;;;;11.44;64.22;99742.88;5046339;28;20041;-58
2021/05/30 00:49:21;;;;;;;5.05;2.10;;;;;;;11.55;63.98;99746.16;5028574;28;20052;-60
2021/05/30 00:51:48;;;;;;;4.63;2.60;;;;;;;11.41;63.67;99748.25;5031148;28;20465;-63
2021/05/30 00:54:15;;;;;;;4.75;2.30;;;;;;;11.19;64.14;99745.22;5019958;28;20545;-59
2021/05/30 00:56:41;;;;;;;7.35;2.00;;;;;;;11.09;64.27;99721.56;5022859;28;20037;-65
2021/05/30 00:59:09;;;;;;;6.35;2.47;;;;;;;11.37;63.80;99741.25;5016543;28;20080;-61
2021/05/30 01:01:35;;;;;;;8.27;2.40;;;;;;;11.21;64.40;99729.25;5045628;28;20094;-62
2021/05/30 01:04:01;;;;;;;14.68;3.00;;;;;;;11.34;64.78;99743.97;5045323;28;20077;-62
2021/05/30 01:06:29;;;;;;;7.50;2.30;;;;;;;11.28;64.14;99733.53;5010870;28;20075;-61
2021/05/30 01:08:58;;;;;;;9.00;2.50;;;;;;;11.43;64.23;99751.75;4993415;28;20046;-61
2021/05/30 01:11:28;;;;;;;5.43;2.45;;;;;;;11.34;64.11;99728.06;5010338;28;20069;-63
2021/05/30 01:13:55;;;;;;;5.85;2.28;;;;;;;11.35;63.76;99738.63;5043226;28;20044;-62
2021/05/30 01:16:23;;;;;;;6.85;2.50;;;;;;;11.44;64.25;99757.00;5011297;28;20037;-63
2021/05/30 01:18:53;;;;;;;4.22;2.20;;;;;;;11.43;63.76;99760.56;5045017;28;20041;-61
2021/05/30 01:21:20;;;;;;;7.47;2.30;;;;;;;11.20;63.66;99738.97;5042253;28;20041;-75
2021/05/30 01:23:52;;;;;;;6.63;2.22;;;;;;;11.29;64.10;99743.22;5008036;28;20049;-61
2021/05/30 01:26:19;;;;;;;8.20;2.50;;;;;;;11.29;64.24;99773.31;4996193;28;20504;-65
2021/05/30 01:28:46;;;;;;;11.02;2.10;;;;;;;11.23;64.41;99757.50;5025979;28;20076;-70
2021/05/30 01:31:13;;;;;;;5.32;2.00;;;;;;;11.10;64.13;99749.84;4998609;28;21053;-60
2021/05/30 01:33:39;;;;;;;7.18;2.30;;;;;;;11.27;63.74;99771.59;5027172;28;20047;-61
2021/05/30 01:36:05;;;;;;;8.05;2.28;;;;;;;11.27;64.07;99753.88;5044075;28;20049;-61
2021/05/30 01:38:32;;;;;;;3.65;2.00;;;;;;;11.18;63.96;99775.31;5025124;28;20509;-62
2021/05/30 01:40:59;;;;;;;8.18;2.20;;;;;;;11.35;63.78;99782.91;5009250;28;20056;-62
2021/05/30 01:43:26;;;;;;;5.38;2.63;;;;;;;10.97;64.08;99729.81;5025972;28;20052;-63
2021/05/30 01:45:52;;;;;;;8.27;2.60;;;;;;;11.19;64.19;99771.75;5032814;28;20053;-65
2021/05/30 01:48:18;;;;;;;5.35;2.25;;;;;;;11.29;64.09;99772.41;5026140;28;20044;-63
2021/05/30 01:50:47;;;;;;;3.15;2.00;;;;;;;11.13;64.34;99778.97;5030483;28;20404;-66
2021/05/30 01:53:18;;;;;;;15.07;2.63;;;;;;;11.20;64.56;99773.50;5046452;28;20045;-63
2021/05/30 01:56:54;;;;;;;6.97;2.42;;;;;;;11.07;64.56;99756.09;5047048;28;20037;-62
2021/05/30 01:58:40;;;;;;;11.05;2.80;;;;;;;11.19;64.39;99777.06;5048070;28;20045;-63
2021/05/30 02:01:10;;;;;;;6.43;2.90;;;;;;;11.05;64.30;99770.31;5030748;28;20049;-62
2021/05/30 02:03:36;;;;;;;4.78;2.55;;;;;;;11.17;64.70;99764.72;5014037;28;20037;-64
2021/05/30 02:06:03;;;;;;;7.68;2.80;;;;;;;11.15;64.51;99764.75;5031140;28;20053;-61
2021/05/30 02:08:31;;;;;;;4.75;2.20;;;;;;;11.20;64.69;99783.25;5024887;28;20053;-62
2021/05/30 02:10:58;;;;;;;7.55;2.28;;;;;;;11.03;64.19;99773.00;4994457;28;20485;-60
2021/05/30 02:13:26;;;;;;;8.75;3.50;;;;;;;11.00;64.64;99782.81;4992093;28;20526;-60
2021/05/30 02:15:52;;;;;;;11.98;2.50;;;;;;;11.04;65.34;99795.97;5017625;28;20064;-62
2021/05/30 02:18:18;;;;;;;3.67;2.22;;;;;;;10.99;64.59;99789.03;5047755;28;20120;-62
2021/05/30 02:20:44;;;;;;;2.67;2.05;;;;;;;11.19;64.61;99805.41;5046548;28;20178;-60
2021/05/30 02:23:12;;;;;;;6.18;2.33;;;;;;;11.26;64.80;99805.22;5047492;28;20116;-62
2021/05/30 02:25:39;;;;;;;5.18;2.22;;;;;;;11.06;63.92;99795.94;5046376;28;20048;-66
2021/05/30 02:28:05;;;;;;;8.48;2.50;;;;;;;10.86;65.13;99792.81;5029470;28;20397;-61
2021/05/30 02:30:31;;;;;;;9.05;2.25;;;;;;;11.03;64.43;99804.84;5016569;28;20416;-62
2021/05/30 02:32:58;;;;;;;4.65;2.30;;;;;;;11.07;64.32;99781.78;5011460;28;20057;-63
2021/05/30 02:35:24;;;;;;;18.17;2.65;;;;;;;11.11;64.62;99800.25;5012911;28;20055;-56
2021/05/30 02:37:50;;;;;;;5.00;2.15;;;;;;;11.17;64.40;99800.13;5040735;28;20041;-60
2021/05/30 02:40:16;;;;;;;4.63;2.40;;;;;;;11.18;63.92;99806.28;4997547;28;20110;-61
2021/05/30 02:42:42;;;;;;;5.78;2.03;;;;;;;11.27;63.79;99806.09;5032051;28;20045;-59
2021/05/30 02:45:09;;;;;;;10.02;2.50;;;;;;;11.27;64.27;99806.97;5047678;28;20131;-58
2021/05/30 02:47:35;;;;;;;4.50;2.00;;;;;;;11.19;63.61;99805.41;5039747;28;20477;-66
2021/05/30 02:50:02;;;;;;;6.85;2.35;;;;;;;10.96;63.98;99815.63;5046423;28;20114;-68
2021/05/30 02:52:28;;;;;;;4.60;2.15;;;;;;;11.16;63.94;99806.31;5027042;28;20056;-62
2021/05/30 02:54:54;;;;;;;7.72;2.03;;;;;;;11.19;63.14;99831.94;5045848;28;20045;-61
2021/05/30 02:57:20;;;;;;;6.43;2.40;;;;;;;11.17;63.42;99828.44;5046369;28;20075;-62
2021/05/30 02:59:46;;;;;;;11.02;2.20;;;;;;;11.20;63.58;99828.38;5044170;28;20040;-60
2021/05/30 03:02:12;;;;;;;9.20;2.17;;;;;;;11.09;63.87;99822.41;5044379;28;20087;-57
2021/05/30 03:04:37;;;;;;;5.22;2.40;;;;;;;10.85;63.19;99820.25;5046078;28;20548;-70
2021/05/30 03:07:03;;;;;;;8.85;1.95;;;;;;;10.89;63.63;99812.22;5045804;28;20060;-73
2021/05/30 03:09:29;;;;;;;8.43;2.28;;;;;;;11.18;63.45;99831.06;5028225;28;20142;-58
2021/05/30 03:11:55;;;;;;;9.73;2.20;;;;;;;11.01;63.47;99821.69;5031910;28;20045;-61
2021/05/30 03:14:21;;;;;;;6.70;2.50;;;;;;;11.16;62.35;99834.66;5045839;28;20037;-63
2021/05/30 03:16:47;;;;;;;10.77;2.17;;;;;;;11.25;62.60;99845.06;5044282;28;20049;-74
2021/05/30 03:19:13;;;;;;;4.80;2.20;;;;;;;11.20;62.90;99846.94;5044720;28;20538;-59
2021/05/30 03:21:40;;;;;;;4.90;2.00;;;;;;;11.18;61.97;99854.94;5045369;28;20464;-58
2021/05/30 03:24:08;;;;;;;5.45;2.20;;;;;;;11.28;62.11;99866.25;5014215;28;20045;-58
2021/05/30 03:26:36;;;;;;;13.88;2.30;;;;;;;11.25;62.31;99863.63;5042684;28;20049;-59
2021/05/30 03:29:04;;;;;;;11.57;2.30;;;;;;;11.20;62.19;99871.69;5030235;28;20080;-63
2021/05/30 03:31:30;;;;;;;9.38;2.40;;;;;;;11.31;62.11;99859.06;5045227;28;20045;-60
2021/05/30 03:33:55;;;;;;;5.00;1.98;;;;;;;11.17;61.64;99847.88;5034702;28;20052;-60
2021/05/30 03:36:29;;;;;;;8.35;1.90;;;;;;;11.39;61.05;99853.63;5043294;28;20098;-62
2021/05/30 03:39:02;;;;;;;4.07;2.05;;;;;;;11.15;61.78;99852.34;5007188;28;20053;-63
2021/05/30 03:41:36;;;;;;;5.20;2.38;;;;;;;11.12;62.59;99848.88;5026716;28;20350;-59
2021/05/30 03:44:04;;;;;;;6.28;1.90;;;;;;;10.90;62.59;99861.72;5038912;28;20045;-57
2021/05/30 03:46:31;;;;;;;8.15;2.33;;;;;;;11.21;62.06;99859.31;5046218;28;20507;-57
2021/05/30 03:48:57;;;;;;;4.50;1.95;;;;;;;11.21;61.88;99854.88;5025959;28;20045;-60
2021/05/30 03:51:23;;;;;;;7.38;2.25;;;;;;;11.35;60.85;99866.06;5044780;28;20045;-60
2021/05/30 03:53:49;;;;;;;4.65;2.33;;;;;;;11.11;61.60;99855.97;5045827;28;20045;-58
2021/05/30 03:56:14;;;;;;;7.80;2.53;;;;;;;11.31;60.83;99866.19;5045701;28;20045;-78
2021/05/30 03:58:41;;;;;;;5.82;2.65;;;;;;;11.31;60.75;99863.53;5045869;28;20055;-59
2021/05/30 04:01:07;;;;;;;11.10;2.22;;;;;;;11.41;61.06;99862.41;5023779;28;20778;-59
2021/05/30 04:03:33;;;;;;;8.05;2.13;;;;;;;11.32;60.73;99850.19;5044408;28;20039;-59
2021/05/30 04:05:59;;;;;;;9.85;2.25;;;;;;;11.30;60.94;99853.78;5031528;28;20376;-63
2021/05/30 04:08:24;;;;;;;2.92;2.22;;;;;;;11.31;61.13;99856.41;5045361;28;20052;-61
2021/05/30 04:10:51;;;;;;;5.85;1.85;;;;;;;11.13;60.89;99874.50;5044811;28;20033;-63
2021/05/30 04:13:18;;;;;;;5.40;2.08;;;;;;;11.34;60.85;99871.41;5024621;28;20514;-62
2021/05/30 04:15:45;;;;;;;8.88;2.30;;;;;;;11.37;60.15;99866.03;5023774;28;20064;-61
2021/05/30 04:18:10;;;;;;;4.47;2.13;;;;;;;11.27;61.13;99868.00;5045458;28;20037;-63
2021/05/30 04:20:36;;;;;;;7.03;2.40;;;;;;;11.62;59.95;99860.19;5039997;28;20132;-61
2021/05/30 04:23:03;;;;;;;11.38;2.08;;;;;;;11.43;59.65;99850.00;5044347;28;20045;-62
2021/05/30 04:25:29;;;;;;;11.63;2.22;;;;;;;11.44;59.52;99862.34;5045507;28;20045;-64
2021/05/30 04:27:55;;;;;;;6.53;2.40;;;;;;;11.70;59.33;99874.16;5043108;28;20503;-62
2021/05/30 04:30:21;;;;;;;5.07;1.95;;;;;;;11.81;58.85;99881.88;5044510;28;20056;-63
2021/05/30 04:32:48;;;;;;;7.18;2.60;;;;;;;11.49;59.13;99864.00;5026636;28;20045;-62
2021/05/30 04:35:14;;;;;;;6.20;2.35;;;;;;;11.84;58.96;99887.13;5026825;28;20045;-64
2021/05/30 04:37:40;;;;;;;6.50;2.10;;;;;;;11.65;58.99;99894.66;5044208;28;20061;-64
2021/05/30 04:40:09;;;;;;;7.32;2.13;;;;;;;11.63;58.88;99896.44;5011838;28;20048;-68
2021/05/30 04:42:36;;;;;;;10.18;2.13;;;;;;;11.73;58.36;99907.75;5043214;28;20079;-63
2021/05/30 04:45:03;;;;;;;4.60;2.28;;;;;;;11.79;58.91;99904.97;5032364;28;20057;-62
2021/05/30 04:47:29;;;;;;;4.97;2.65;;;;;;;11.92;58.07;99890.47;5041721;28;20091;-65
2021/05/30 04:49:56;;;;;;;5.90;2.28;;;;;;;12.00;57.92;99878.78;5010627;28;20044;-66
2021/05/30 04:52:22;;;;;;;6.53;2.22;;;;;;;12.00;57.92;99901.81;5045011;28;20048;-58
2021/05/30 04:54:48;;;;;;;3.35;2.17;;;;;;;12.09;57.69;99907.78;5028450;28;20040;-62
2021/05/30 04:57:14;;;;;;;5.85;1.70;;;;;;;11.90;58.01;99914.44;5026994;28;20052;-73
2021/05/30 04:59:40;;;;;;;2.63;1.70;;;;;;;11.84;58.51;99895.97;5043625;28;20044;-66
2021/05/30 05:02:05;;;;;;;6.50;2.25;;;;;;;11.77;58.61;99912.06;5044687;28;20493;-61
2021/05/30 05:04:31;;;;;;;3.10;2.00;;;;;;;11.86;58.41;99902.13;5044204;28;20051;-60
2021/05/30 05:06:57;;;;;;;9.55;2.70;;;;;;;11.90;58.19;99903.81;5041891;28;20140;-65
2021/05/30 05:09:23;;;;;;;4.70;2.00;;;;;;;11.85;58.03;99912.78;5044301;28;20179;-61
2021/05/30 05:11:49;;;;;;;3.90;2.10;;;;;;;11.79;58.14;99915.59;5044789;28;20037;-62
2021/05/30 05:14:14;;;;;;;8.30;1.80;;;;;;;12.22;57.40;99906.56;5044168;28;20059;-66
2021/05/30 05:16:40;;;;;;;3.47;2.00;;;;;;;12.32;56.93;99913.41;5042497;28;20068;-61
2021/05/30 05:19:06;;;;;;;8.30;2.30;;;;;;;12.22;57.04;99892.41;5044634;28;20049;-62
2021/05/30 05:21:32;;;;;;;6.25;2.05;;;;;;;12.23;57.23;99915.44;5041857;28;20147;-59
2021/05/30 05:23:58;;;;;;;5.78;2.20;;;;;;;11.96;57.41;99914.31;5038461;28;20049;-76
2021/05/30 05:26:24;;;;;;;5.38;2.65;;;;;;;12.15;57.53;99922.72;5029444;28;20060;-65
2021/05/30 05:28:50;;;;;;;10.93;2.13;;;;;;;11.94;57.61;99910.78;5024445;28;20132;-63
2021/05/30 05:31:16;;;;;;;6.03;2.03;;;;;;;12.22;57.53;99932.28;5028146;28;20048;-61
2021/05/30 05:33:43;;;;;;;4.38;2.63;;;;;;;12.18;57.68;99922.66;5045778;28;20064;-61
2021/05/30 05:36:10;;;;;;;7.97;2.67;;;;;;;12.44;57.23;99926.41;5030092;28;20052;-72
2021/05/30 05:38:37;;;;;;;7.30;2.20;;;;;;;12.40;56.20;99929.16;5029709;28;20037;-61
2021/05/30 05:41:04;;;;;;;3.42;2.22;;;;;;;12.24;56.92;99917.16;5031285;28;20067;-68
2021/05/30 05:43:30;;;;;;;5.70;2.33;;;;;;;12.34;57.21;99937.31;5031758;28;20111;-61
2021/05/30 05:45:55;;;;;;;7.88;2.10;;;;;;;12.21;57.21;99918.13;5047852;28;20130;-64
2021/05/30 05:48:22;;;;;;;5.32;2.10;;;;;;;12.33;56.86;99931.13;5048051;28;20552;-61
2021/05/30 05:50:47;;;;;;;6.18;1.90;;;;;;;12.39;57.06;99938.91;5017672;28;20041;-63
2021/05/30 05:53:14;;;;;;;17.70;2.00;;;;;;;11.97;57.28;99926.66;5027300;28;20064;-59
2021/05/30 05:55:40;;;;;;;7.55;2.03;;;;;;;12.03;57.80;99937.16;5026404;28;20041;-66
2021/05/30 05:58:06;;;;;;;6.28;2.58;;;;;;;11.90;58.17;99934.78;5032614;28;20736;-61
2021/05/30 06:00:32;;;;;;;3.00;1.80;;;;;;;11.71;57.80;99944.09;5046139;28;20057;-61
2021/05/30 06:02:58;;;;;;;7.95;1.70;;;;;;;11.96;56.97;99945.31;4994276;28;20041;-61
2021/05/30 06:05:25;;;;;;;4.55;2.08;;;;;;;12.10;56.75;99954.69;5043937;28;20044;-66
2021/05/30 06:07:53;;;;;;;6.82;1.90;;;;;;;11.98;57.33;99954.09;5008761;28;20498;-80
2021/05/30 06:10:23;;;;;;;6.28;1.90;;;;;;;12.00;57.26;99952.28;5022655;28;20815;-66
2021/05/30 06:12:56;;;;;;;4.03;1.73;;;;;;;12.19;56.67;99954.47;5012892;28;20124;-62
2021/05/30 06:15:24;;;;;;;11.20;2.38;;;;;;;12.32;56.82;99958.63;5022586;28;20048;-66
2021/05/30 06:17:56;;;;;;;6.15;2.17;;;;;;;12.39;56.61;99954.88;5026814;28;20523;-69
2021/05/30 06:20:24;;;;;;;5.25;2.10;;;;;;;12.49;56.12;99950.22;5034854;28;20368;-62
2021/05/30 06:22:50;;;;;;;7.53;2.22;;;;;;;12.56;56.56;99962.44;5032254;28;20053;-70
2021/05/30 06:25:16;;;;;;;8.90;2.38;;;;;;;12.58;57.12;99972.13;5046759;28;20103;-63
2021/05/30 06:27:42;;;;;;;6.93;3.03;;;;;;;12.31;57.07;99959.50;5046986;28;20140;-61
2021/05/30 06:30:10;;;;;;;16.13;2.33;;;;;;;12.44;56.48;99970.72;5019333;28;20417;-64
2021/05/30 06:32:36;;;;;;;4.53;2.28;;;;;;;12.16;56.82;99969.63;5011060;28;20094;-63
2021/05/30 06:35:03;;;;;;;6.78;2.30;;;;;;;12.18;56.91;99979.31;5047244;28;20053;-63
2021/05/30 06:37:30;;;;;;;4.32;2.38;;;;;;;12.41;56.32;99992.06;5046588;28;20049;-65
2021/05/30 06:39:56;;;;;;;7.60;2.08;;;;;;;12.15;56.88;99971.41;5044606;28;20358;-70
2021/05/30 06:42:22;;;;;;;4.78;1.80;;;;;;;12.41;55.68;99974.34;5045253;28;20080;-62
2021/05/30 06:44:48;;;;;;;8.40;2.15;;;;;;;12.40;55.96;99990.34;5046380;28;20076;-63
2021/05/30 06:47:14;;;;;;;6.38;1.88;;;;;;;12.05;56.69;99984.94;5028339;28;20071;-62
2021/05/30 06:49:39;;;;;;;8.13;2.25;;;;;;;12.20;56.26;99989.94;5044639;28;20077;-62
2021/05/30 06:52:07;;;;;;;8.38;2.00;;;;;;;12.26;56.68;99990.66;5047529;28;20166;-68
2021/05/30 06:54:33;;;;;;;6.60;1.88;;;;;;;12.65;56.07;99995.03;5002443;28;20045;-62
2021/05/30 06:56:59;;;;;;;15.27;2.30;;;;;;;12.94;55.39;100007.59;5044537;28;20094;-81
2021/05/30 06:59:24;;;;;;;16.85;2.33;;;;;;;12.53;55.91;100005.06;5045076;28;20061;-61
2021/05/30 07:01:50;;;;;;;5.95;1.83;;;;;;;12.64;55.31;100013.69;5033945;28;20049;-64
2021/05/30 07:04:16;;;;;;;9.10;2.25;;;;;;;12.61;55.05;100014.63;5045439;28;20125;-60
2021/05/30 07:06:42;;;;;;;4.10;2.05;;;;;;;12.47;54.92;99995.47;5042203;28;20037;-61
2021/05/30 07:09:08;;;;;;;7.30;2.03;;;;;;;12.90;54.75;100013.91;5046765;28;20045;-59
2021/05/30 07:11:34;;;;;;;9.23;1.95;;;;;;;12.90;54.70;100019.25;5044905;28;20420;-70
2021/05/30 07:14:00;;;;;;;9.95;1.80;;;;;;;12.92;54.57;100020.94;5027134;28;20063;-60
2021/05/30 07:16:26;;;;;;;2.78;2.00;;;;;;;12.86;54.58;100001.59;5039816;28;20042;-62
2021/05/30 07:18:52;;;;;;;6.82;1.90;;;;;;;12.66;55.53;100031.34;5037857;28;20048;-64
2021/05/30 07:21:18;;;;;;;5.65;2.20;;;;;;;12.73;55.23;100032.06;5028212;28;20075;-71
2021/05/30 07:23:44;;;;;;;4.85;1.80;;;;;;;12.74;55.49;100031.19;5020552;28;20044;-68
2021/05/30 07:26:10;;;;;;;3.67;2.10;;;;;;;12.72;55.17;100019.69;5046144;28;20048;-78
2021/05/30 07:28:36;;;;;;;7.78;2.88;;;;;;;12.75;55.04;100048.88;5047076;28;20126;-62
2021/05/30 07:31:02;;;;;;;4.47;3.10;;;;;;;12.73;55.91;100050.69;5044442;28;20049;-62
2021/05/30 07:33:28;;;;;;;12.30;2.10;;;;;;;12.44;55.89;100047.84;5043725;28;20041;-62
2021/05/30 07:35:54;;;;;;;12.60;2.20;;;;;;;12.36;55.96;100042.72;5035089;28;20041;-65
2021/05/30 07:38:20;;;;;;;8.25;2.58;;;;;;;12.53;55.66;100037.00;5036918;28;20049;-62
2021/05/30 07:40:48;;;;;;;11.27;2.60;;;;;;;12.56;55.54;100055.56;5032289;28;20046;-61
2021/05/30 07:43:17;;;;;;;13.55;2.40;;;;;;;12.50;55.29;100045.06;5041872;28;20059;-60
2021/05/30 07:45:44;;;;;;;11.27;2.38;;;;;;;12.70;55.17;100051.66;5041213;28;20136;-58
2021/05/30 07:48:10;;;;;;;10.57;2.60;;;;;;;12.52;55.75;100051.22;5035635;28;20363;-70
2021/05/30 07:50:38;;;;;;;8.95;1.92;;;;;;;12.63;55.56;100057.16;5041970;28;20147;-61
2021/05/30 07:53:04;;;;;;;7.43;2.50;;;;;;;13.14;54.51;100055.91;5034153;28;20924;-60
2021/05/30 07:55:29;;;;;;;7.18;2.20;;;;;;;13.20;54.14;100053.97;5045660;28;20045;-64
2021/05/30 07:57:55;;;;;;;4.55;1.50;;;;;;;13.31;53.21;100048.34;5044179;28;20134;-75
2021/05/30 08:00:22;;;;;;;4.15;1.70;;;;;;;13.57;52.98;100045.88;5010080;28;20223;-64
2021/05/30 08:02:49;;;;;;;4.43;1.67;;;;;;;13.74;52.13;100049.78;5011025;28;20058;-64
2021/05/30 08:05:21;;;;;;;7.78;2.40;;;;;;;13.82;52.74;100057.59;5009708;28;20060;-63
2021/05/30 08:07:51;;;;;;;5.37;2.17;;;;;;;13.58;52.49;100056.47;5025256;28;20072;-65
2021/05/30 08:10:19;;;;;;;8.90;2.67;;;;;;;13.92;52.12;100056.38;5037919;28;20305;-64
2021/05/30 08:12:45;;;;;;;6.50;1.90;;;;;;;14.31;51.34;100055.25;5000650;28;20040;-64
2021/05/30 08:15:12;;;;;;;10.52;2.97;;;;;;;14.14;51.23;100057.53;5041817;28;20044;-64
2021/05/30 08:17:39;;;;;;;6.15;1.92;;;;;;;14.20;51.27;100054.66;4994633;28;20041;-63
2021/05/30 08:20:07;;;;;;;12.88;2.25;;;;;;;14.40;50.61;100059.44;5044542;28;20433;-60
2021/05/30 08:22:33;;;;;;;5.05;1.88;;;;;;;14.65;50.24;100060.41;5039643;28;20053;-73
2021/05/30 08:25:00;;;;;;;5.85;1.73;;;;;;;15.16;48.89;100070.28;5011245;28;20494;-63
2021/05/30 08:27:26;;;;;;;7.65;1.67;;;;;;;15.08;48.50;100063.44;5044475;28;20081;-64
2021/05/30 08:29:52;;;;;;;8.23;1.70;;;;;;;15.03;48.04;100068.91;5045126;28;20063;-64
2021/05/30 08:32:20;;;;;;;13.38;1.65;;;;;;;14.82;48.21;100052.72;5042449;28;20045;-61
2021/05/30 08:34:46;;;;;;;5.25;1.48;;;;;;;15.67;45.96;100062.28;5043778;28;20070;-65
2021/05/30 08:37:13;;;;;;;10.48;1.80;;;;;;;16.45;44.50;100070.91;5043231;28;20784;-64
2021/05/30 08:39:41;;;;;;;7.47;1.95;;;;;;;16.57;43.68;100066.84;5008611;28;20390;-76
2021/05/30 08:42:08;;;;;;;7.72;1.63;;;;;;;17.67;41.63;100066.66;5010256;28;20064;-63
2021/05/30 08:44:34;;;;;;;3.90;1.30;;;;;;;17.89;41.12;100080.84;5021292;28;20075;-64
2021/05/30 08:47:00;;;;;;;10.50;1.95;;;;;;;18.77;40.26;100069.59;5041895;28;20123;-65
2021/05/30 08:49:26;;;;;;;12.48;1.80;;;;;;;19.56;37.89;100064.69;5040086;28;20555;-67
2021/05/30 08:51:52;;;;;;;6.20;2.00;;;;;;;19.12;38.28;100071.44;5041957;28;20130;-65
2021/05/30 08:54:19;;;;;;;13.23;3.33;;;;;;;17.29;41.34;100064.72;5027272;28;20123;-66
2021/05/30 08:56:52;;;;;;;7.38;1.80;;;;;;;17.35;42.21;100069.84;5021754;28;20068;-61
2021/05/30 08:59:29;;;;;;;5.88;1.50;;;;;;;17.01;42.19;100072.16;5009329;28;20076;-63
2021/05/30 09:02:13;;;;;;;12.88;1.60;;;;;;;16.32;43.44;100071.38;5034706;28;20045;-63
2021/05/30 09:04:50;;;;;;;7.00;3.88;;;;;;;15.49;45.48;100065.59;5027493;28;20053;-69
2021/05/30 09:07:16;;;;;;;7.32;1.80;;;;;;;16.14;44.48;100070.28;5025151;28;20054;-67
2021/05/30 09:09:47;;;;;;;14.82;2.35;;;;;;;16.75;43.03;100083.09;5041905;28;20071;-69
2021/05/30 09:12:36;;;;;;;10.80;3.13;;;;;;;20.98;34.18;100100.91;5024170;28;20045;-63
2021/05/30 09:15:07;;;;;;;4.97;1.70;;;;;;;23.65;29.72;100088.47;5027651;28;20045;-64
2021/05/30 09:17:33;;;;;;;8.27;1.88;;;;;;;24.28;27.52;100084.88;5000759;28;20061;-60
2021/05/30 09:20:00;;;;;;;6.70;1.30;;;;;;;23.67;27.98;100084.69;5043197;28;20456;-65
2021/05/30 09:22:40;;;;;;;9.88;1.40;;;;;;;22.80;29.04;100092.38;5007723;28;20049;-61
2021/05/30 09:25:08;;;;;;;8.48;2.25;;;;;;;22.60;28.68;100081.97;5025193;28;20049;-62
2021/05/30 09:27:45;;;;;;;9.07;1.50;;;;;;;22.58;28.50;100092.88;5011717;28;20056;-62
2021/05/30 09:30:23;;;;;;;5.78;1.05;;;;;;;22.70;28.49;100091.25;5024801;28;20144;-70
2021/05/30 09:33:08;;;;;;;14.73;1.17;;;;;;;23.53;27.53;100081.19;5008736;28;20107;-62
2021/05/30 09:35:37;;;;;;;7.05;1.35;;;;;;;23.61;27.84;100087.78;5024259;28;20059;-66
2021/05/30 09:38:09;;;;;;;6.22;1.23;;;;;;;23.17;25.85;100100.69;5009550;28;20060;-65
2021/05/30 09:40:49;;;;;;;16.40;2.10;;;;;;;22.29;27.12;100110.03;5040192;28;20151;-76
2021/05/30 09:43:25;;;;;;;17.30;2.10;;;;;;;25.16;24.64;100091.03;5041646;28;20098;-65
2021/05/30 09:46:17;;;;;;;7.18;1.45;;;;;;;26.22;22.93;100094.59;5024846;28;20142;-69
2021/05/30 09:48:47;;;;;;;5.28;1.50;;;;;;;27.43;20.43;100116.41;5025254;28;20076;-62
2021/05/30 09:51:37;;;;;;;12.85;1.60;;;;;;;28.08;20.43;100116.28;5004991;28;20037;-72
2021/05/30 09:54:13;;;;;;;8.55;1.40;;;;;;;28.07;19.31;100109.09;5041175;28;20057;-65
2021/05/30 09:56:52;;;;;;;12.23;1.60;;;;;;;28.54;18.83;100103.97;5041662;28;20052;-74
2021/05/30 09:59:22;;;;;;;12.27;1.50;;;;;;;27.56;19.17;100097.16;5024127;28;20501;-61
2021/05/30 10:02:03;;;;;;;2.50;1.20;;;;;;;27.42;19.24;100103.78;5042493;28;20055;-63
2021/05/30 10:04:34;;;;;;;15.85;1.35;;;;;;;28.13;18.98;100105.84;5041297;28;20091;-64
2021/05/30 10:07:04;;;;;;;7.78;1.58;;;;;;;28.31;18.50;100109.69;4993232;28;20033;-64
2021/05/30 10:09:31;;;;;;;5.78;1.35;;;;;;;27.74;19.68;100122.84;5006598;28;20095;-70
2021/05/30 10:11:58;;;;;;;10.77;1.45;;;;;;;27.11;19.60;100098.22;5008396;28;20045;-60
2021/05/30 10:14:25;;;;;;;4.07;0.90;;;;;;;25.79;20.75;100113.34;5012578;28;20045;-62
2021/05/30 10:16:51;;;;;;;7.28;1.42;;;;;;;25.01;21.74;100103.06;5029214;28;20040;-67
2021/05/30 10:19:31;;;;;;;9.77;1.17;;;;;;;23.98;23.42;100097.91;5026377;28;20041;-63
2021/05/30 10:21:59;;;;;;;7.28;1.10;;;;;;;23.67;24.58;100110.88;5044735;28;20037;-65
2021/05/30 10:24:27;;;;;;;4.30;0.90;;;;;;;22.65;25.94;100101.47;4997072;28;20041;-67
2021/05/30 10:27:20;;;;;;;14.13;1.98;;;;;;;23.04;24.99;100093.50;5046372;28;20067;-65
2021/05/30 10:30:07;;;;;;;9.90;1.15;;;;;;;22.41;25.87;100097.59;5044380;28;20060;-67
2021/05/30 10:32:35;;;;;;;9.23;2.65;;;;;;;22.89;25.00;100092.66;5025487;28;20076;-62
2021/05/30 10:35:25;;;;;;;17.73;2.00;;;;;;;22.84;25.20;100110.16;5029441;28;20041;-62
2021/05/30 10:37:56;;;;;;;11.40;1.38;;;;;;;24.04;23.04;100115.53;5029299;28;20069;-61
2021/05/30 10:40:26;;;;;;;8.25;1.45;;;;;;;23.44;23.67;100090.78;5014481;28;20047;-64
2021/05/30 10:43:08;;;;;;;23.30;1.70;;;;;;;24.17;23.20;100100.19;5030276;28;20040;-61
2021/05/30 10:45:58;;;;;;;8.40;1.35;;;;;;;23.74;24.34;100106.78;5012388;28;20525;-62
2021/05/30 10:48:25;;;;;;;13.63;1.20;;;;;;;23.04;24.71;100115.13;5030831;28;20089;-65
2021/05/30 10:50:58;;;;;;;16.38;1.45;;;;;;;22.73;25.46;100110.84;5012561;28;20068;-65
2021/05/30 10:54:05;;;;;;;9.18;1.10;;;;;;;21.69;26.25;100103.81;5009907;28;20041;-63
2021/05/30 10:56:34;;;;;;;5.95;1.08;;;;;;;23.30;24.39;100117.88;5026841;28;20620;-69
2021/05/30 10:59:03;;;;;;;6.72;1.17;;;;;;;23.41;24.59;100096.41;5031249;28;20037;-64
2021/05/30 11:04:31;;;;;;;7.75;1.33;;;;;;;21.07;27.01;100124.63;5033971;28;20037;-66
2021/05/30 11:07:18;;;;;;;13.30;1.40;;;;;;;20.77;27.95;100129.88;5026417;28;20094;-67
2021/05/30 11:09:59;;;;;;;12.02;1.55;;;;;;;20.72;28.02;100117.63;5018066;28;20600;-62
2021/05/30 11:12:42;;;;;;;12.98;1.55;;;;;;;20.67;28.22;100125.09;5009612;28;20045;-67
2021/05/30 11:15:07;;;;;;;12.60;1.90;;;;;;;20.62;28.54;100121.78;5043175;28;20055;-63
2021/05/30 11:17:55;;;;;;;15.05;2.00;;;;;;;20.37;29.13;100132.19;5032173;28;20041;-64
2021/05/30 11:20:27;;;;;;;9.90;1.73;;;;;;;19.78;29.61;100129.03;5000232;28;20041;-64
2021/05/30 11:22:57;;;;;;;14.50;1.38;;;;;;;20.31;29.12;100128.00;5024850;28;20044;-67
2021/05/30 11:25:59;;;;;;;10.43;1.55;;;;;;;21.50;27.90;100137.38;5021552;28;20124;-68
2021/05/30 11:28:27;;;;;;;19.17;3.47;;;;;;;20.67;28.57;100127.78;4983496;28;20145;-63
2021/05/30 11:31:01;;;;;;;8.43;2.38;;;;;;;19.51;30.03;100101.72;4980069;28;20098;-66
2021/05/30 11:33:40;;;;;;;15.05;2.28;;;;;;;19.68;30.52;100122.38;4990398;28;20187;-65
2021/05/30 11:36:11;;;;;;;4.22;1.90;;;;;;;19.43;30.81;100129.97;4986342;28;20085;-68
2021/05/30 11:38:39;;;;;;;21.13;1.45;;;;;;;19.57;29.88;100114.84;4959237;28;21691;-66